Terminal Aerodrome Forecast
Issued by NWS

Home | Current Version | Previous Version | Graphics & Text | Print | Product List | Glossary On
Versions: 1 2 3 4 5 6 7 8 9 10 11 12 13 14 15 16
000
FTUS43 KMPX 212320
TAFRWF
TAF
KRWF 212320Z 2200/2224 01011KT P6SM SKC
     FM220600 08007KT P6SM FEW250
     FM221000 10008KT P6SM SCT250
     FM221600 15014KT P6SM BKN120
     FM222200 15018G27KT P6SM OVC060=

USA.gov is the U.S. government's official web portal to all federal, state and local government web resources and services.